Thunder radar more information blitzortung!


avis per Pluja more information rain snow radar


Visita la nostra xarxa de llocs de meteo:

Template documentation
and downloads

And another site



Rain From: 18-10-2018 10:00 Until: 16:59 warning for: Rain Level: Yellow info button

Pagina Historial Weather Underground text

Diari Resum May 31, 2016 Unitats:  Mètric    Imperial   Tant
« Previous Dia
SegĂźent Dia »
Diari Setmana Mensual Anual Personalitzada
  Maxima: Minima: Media:
Temperatura: -17.8 °C -10.8 °C -7.1 °C
Punt de rosada: -17.8 °C -13.8 °C -12.3 °C
Humitat: Humidity % 37 % 55 %
Wind Speed: 0 km/h 0 km/h 12.4 km/h
RĂ fegues de vent: 0 km/h - -
Vent:- - SSE
Pression baro: 0 hPa 34428.8 hPa -
Precipitacions: 0 mm    
Historical Graphs
 
 
Dades de taula per May 31, 2016
Temps Temperatura Punt de rosada Pression baro Vent Wind Speed RĂ fegues de vent Humitat Rainfall Rate (Hourly)
-17.8 °C -17.8 °C 0 hPa Calm     Humidity % 0 mm
00:00 -8.9 °C -11.6 °C 34496.6 hPa East 9 km/h 9 km/h 73 % 0 mm
00:05 -8.9 °C -11.6 °C 34496.6 hPa SSE 11.9 km/h 11.9 km/h 73 % 0 mm
00:15 -10.5 °C -12.9 °C 34496.6 hPa WSW 5.1 km/h 5.1 km/h 75 % 0 mm
00:35 -10.4 °C -12.7 °C 34496.6 hPa Calm   2.6 km/h 76 % 0 mm
00:45 -10.5 °C -12.7 °C 34496.6 hPa WNW 5.1 km/h 5.1 km/h 77 % 0 mm
00:55 -10.7 °C -12.9 °C 34496.6 hPa Calm   5.1 km/h 76 % 0 mm
01:05 -10.8 °C -13.1 °C 34496.6 hPa Calm   2.6 km/h 76 % 0 mm
01:15 -10.8 °C -13.4 °C 34496.6 hPa Calm   2.6 km/h 73 % 0 mm
01:25 -10.7 °C -13.5 °C 34533.8 hPa WNW 2.6 km/h 2.6 km/h 71 % 0 mm
01:35 -10.7 °C -13.7 °C 34533.8 hPa WSW 2.6 km/h 2.6 km/h 69 % 0 mm
01:45 -10.7 °C -13.8 °C 34533.8 hPa Calm   2.6 km/h 69 % 0 mm
01:55 -10.7 °C -13.8 °C 34533.8 hPa WSW 2.6 km/h 7.7 km/h 69 % 0 mm
02:05 -10.6 °C -13.8 °C 34533.8 hPa WSW 2.6 km/h   68 % 0 mm
02:15 -10.4 °C -13.7 °C 34533.8 hPa SSW 2.6 km/h 5.1 km/h 67 % 0 mm
02:25 -10.3 °C -13.7 °C 34533.8 hPa Calm   7.7 km/h 67 % 0 mm
02:35 -10.3 °C -13.7 °C 34533.8 hPa WSW 2.6 km/h 5.1 km/h 66 % 0 mm
02:45 -10.2 °C -13.7 °C 34533.8 hPa SW 2.6 km/h 5.1 km/h 66 % 0 mm
02:55 -9.9 °C -13.6 °C 34533.8 hPa SW 5.1 km/h 7.7 km/h 65 % 0 mm
03:05 -9.8 °C -13.5 °C 34533.8 hPa WSW 2.6 km/h 20.8 km/h 64 % 0 mm
03:15 -9.7 °C -13.4 °C 34533.8 hPa WSW 12.9 km/h 12.9 km/h 64 % 0 mm
03:25 -9.5 °C -13.4 °C 34533.8 hPa SW 7.7 km/h 10.3 km/h 63 % 0 mm
03:35 -9.3 °C -13.3 °C 34533.8 hPa SW 7.7 km/h 10.3 km/h 62 % 0 mm
03:45 -8.9 °C -12.9 °C 34533.8 hPa North 5.1 km/h 10.3 km/h 62 % 0 mm
04:05 -8.6 °C -12.9 °C 34533.8 hPa WNW 7.7 km/h 12.9 km/h 60 % 0 mm
04:15 -8.3 °C -12.8 °C 34533.8 hPa Calm   7.7 km/h 59 % 0 mm
04:25 -8.1 °C -12.7 °C 34533.8 hPa NW 2.6 km/h 10.3 km/h 58 % 0 mm
04:35 -7.9 °C -12.7 °C 34533.8 hPa WSW 5.1 km/h 10.3 km/h 57 % 0 mm
04:45 -7.5 °C -12.3 °C 34533.8 hPa NW 5.1 km/h 10.3 km/h 57 % 0 mm
04:55 -7.2 °C -12.5 °C 34533.8 hPa West 7.7 km/h 12.9 km/h 54 % 0 mm
05:05 -7.2 °C -12.4 °C 34533.8 hPa SW 7.7 km/h 10.3 km/h 54 % 0 mm
05:15 -7.1 °C -12.6 °C 34533.8 hPa West 7.7 km/h 10.3 km/h 53 % 0 mm
05:25 -6.8 °C -12.4 °C 34533.8 hPa WNW 7.7 km/h 7.7 km/h 52 % 0 mm
10:27 -6.8 °C -12.4 °C 34533.8 hPa SW 17.9 km/h 17.9 km/h 52 % 0 mm
10:32 -6.8 °C -12.4 °C 34533.8 hPa West 11.9 km/h 11.9 km/h 52 % 0 mm
10:37 -6.8 °C -12.4 °C 34533.8 hPa SW 11.9 km/h 11.9 km/h 52 % 0 mm
10:42 -6.8 °C -12.4 °C 34533.8 hPa West 11.9 km/h 11.9 km/h 52 % 0 mm
10:47 -6.7 °C -12.8 °C 34533.8 hPa SW 26.9 km/h 26.9 km/h 49 % 0 mm
10:52 -6.6 °C -12.7 °C 34533.8 hPa WSW 11.9 km/h 11.9 km/h 49 % 0 mm
10:57 -6.5 °C -12.7 °C 34533.8 hPa South 17.9 km/h 17.9 km/h 49 % 0 mm
11:02 -6.4 °C -12.6 °C 34533.8 hPa WNW 9 km/h 10.3 km/h 49 % 0 mm
11:07 -6.4 °C -12.6 °C 34533.8 hPa West 17.9 km/h 17.9 km/h 49 % 0 mm
11:12 -6.4 °C -12.6 °C 34533.8 hPa WSW 17.9 km/h 17.9 km/h 49 % 0 mm
11:17 -6.2 °C -12.4 °C 34533.8 hPa SSW 9.8 km/h 9.8 km/h 49 % 0 mm
11:22 -5.9 °C -12.3 °C 34533.8 hPa WNW 9 km/h 9 km/h 48 % 0 mm
11:27 -5.8 °C -12.2 °C 34533.8 hPa WNW 17.9 km/h 17.9 km/h 48 % 0 mm
11:32 -5.7 °C -12.1 °C 34533.8 hPa NE 9 km/h 9 km/h 48 % 0 mm
11:37 -5.6 °C -12.1 °C 34533.8 hPa WNW 11.9 km/h 11.9 km/h 47 % 0 mm
11:47 -5.5 °C -12.4 °C 34533.8 hPa West 15 km/h 15 km/h 45 % 0 mm
11:52 -5.6 °C -12.5 °C 34533.8 hPa SW 15 km/h 15 km/h 45 % 0 mm
11:57 -5.1 °C -11.9 °C 34533.8 hPa West 11.1 km/h 11.1 km/h 46 % 0 mm
12:02 -5.4 °C -12.4 °C 34533.8 hPa WNW 9 km/h 9 km/h 45 % 0 mm
12:12 -5.2 °C -12.4 °C 34533.8 hPa SW 17.9 km/h 17.9 km/h 44 % 0 mm
12:17 -5.2 °C -12.2 °C 34533.8 hPa SW 9 km/h 9 km/h 45 % 0 mm
12:22 -5.1 °C -12.1 °C 34533.8 hPa WSW 9.3 km/h 9.8 km/h 45 % 0 mm
12:27 -4.8 °C -12.2 °C 34533.8 hPa NW 9 km/h 9 km/h 43 % 0 mm
12:32 -5.1 °C -12.2 °C 34533.8 hPa West 17.9 km/h 17.9 km/h 44 % 0 mm
12:37 -5.1 °C -12.2 °C 34533.8 hPa ENE 9 km/h 9 km/h 44 % 0 mm
12:42 -4.9 °C -12.5 °C 34533.8 hPa NW 17.9 km/h 17.9 km/h 42 % 0 mm
12:47 -4.8 °C -12.4 °C 34533.8 hPa SW 9 km/h 9 km/h 42 % 0 mm
12:52 -4.7 °C -12.4 °C 34533.8 hPa SSE 11.9 km/h 11.9 km/h 41 % 0 mm
12:57 -4.8 °C -12.8 °C 34533.8 hPa SE 14.5 km/h 14.5 km/h 40 % 0 mm
13:02 -4.8 °C -12.6 °C 34496.6 hPa WSW 6.3 km/h 6.3 km/h 41 % 0 mm
13:07 -4.7 °C -12.7 °C 34496.6 hPa West 15 km/h 15 km/h 40 % 0 mm
13:12 -4.8 °C -12.8 °C 34496.6 hPa NNE 9 km/h 9 km/h 40 % 0 mm
13:17 -4.8 °C -12.8 °C 34496.6 hPa NNE 9 km/h 9 km/h 40 % 0 mm
13:22 -4.8 °C -12.8 °C 34496.6 hPa SW 15 km/h 15 km/h 40 % 0 mm
13:27 -4.7 °C -12.7 °C 34496.6 hPa ENE 11.9 km/h 11.9 km/h 40 % 0 mm
13:32 -4.6 °C -12.6 °C 34496.6 hPa WNW 6 km/h 6 km/h 40 % 0 mm
13:37 -4.2 °C -12.4 °C 34496.6 hPa West 15 km/h 15 km/h 39 % 0 mm
13:42 -4.2 °C -12.4 °C 34496.6 hPa ENE 17.9 km/h 17.9 km/h 39 % 0 mm
13:47 -4.2 °C -12.4 °C 34496.6 hPa WNW 15 km/h 15 km/h 39 % 0 mm
13:52 -4.6 °C -13 °C 34496.6 hPa ENE 11.9 km/h 11.9 km/h 38 % 0 mm
13:57 -4.6 °C -13 °C 34496.6 hPa ENE 6 km/h 6 km/h 38 % 0 mm
14:02 -4.6 °C -13 °C 34496.6 hPa SW 9.3 km/h 9.3 km/h 38 % 0 mm
14:07 -3.9 °C -12.6 °C 34496.6 hPa South 11.9 km/h 11.9 km/h 37 % 0 mm
14:12 -3.9 °C -12.6 °C 34496.6 hPa SW 6 km/h 6 km/h 37 % 0 mm
14:17 -3.4 °C -12.2 °C 34496.6 hPa ESE 11.9 km/h 11.9 km/h 37 % 0 mm
14:22 -4.5 °C -12.5 °C 34496.6 hPa East 20.9 km/h 20.9 km/h 40 % 0 mm
14:27 -5.1 °C -12.8 °C 34496.6 hPa East 23.8 km/h 23.8 km/h 41 % 0 mm
14:32 -5.2 °C -12.7 °C 34496.6 hPa ESE 29.8 km/h 29.8 km/h 42 % 0 mm
14:37 -5.2 °C -12.7 °C 34496.6 hPa ESE 29.8 km/h 29.8 km/h 42 % 0 mm
14:42 -5.4 °C -12.8 °C 34496.6 hPa ESE 35.7 km/h 35.7 km/h 43 % 0 mm
14:47 -5.4 °C -12.8 °C 34462.7 hPa ESE 23.8 km/h 23.8 km/h 43 % 0 mm
14:52 -5.4 °C -12.6 °C 34462.7 hPa ESE 26.4 km/h 26.4 km/h 44 % 0 mm
14:57 -5.4 °C -12.6 °C 34462.7 hPa East 20.9 km/h 20.9 km/h 44 % 0 mm
15:02 -5.4 °C -12.6 °C 34462.7 hPa ESE 28.2 km/h 28.2 km/h 44 % 0 mm
15:07 -5.6 °C -12.5 °C 34462.7 hPa East 20.9 km/h 20.9 km/h 45 % 0 mm
15:12 -5.7 °C -12.4 °C 34462.7 hPa ESE 23.8 km/h 23.8 km/h 46 % 0 mm
15:17 -5.7 °C -12.4 °C 34462.7 hPa ESE 29 km/h 29 km/h 46 % 0 mm
15:22 -5.7 °C -12.4 °C 34462.7 hPa ESE 23.8 km/h 23.8 km/h 46 % 0 mm
15:27 -5.7 °C -12.4 °C 34462.7 hPa SE 11.9 km/h 11.9 km/h 46 % 0 mm
15:32 -5.7 °C -12.4 °C 34428.8 hPa NE 20.9 km/h 20.9 km/h 46 % 0 mm
15:37 -5.7 °C -12.4 °C 34428.8 hPa ESE 20.9 km/h 20.9 km/h 46 % 0 mm
15:42 -5.7 °C -12.4 °C 34428.8 hPa ESE 11.1 km/h 11.1 km/h 46 % 0 mm
15:47 -5.7 °C -12.4 °C 34428.8 hPa ESE 11.9 km/h 11.9 km/h 46 % 0 mm
15:52 -5.3 °C -12.1 °C 34428.8 hPa SW 11.9 km/h 11.9 km/h 46 % 0 mm
15:57 -5.1 °C -11.9 °C 34428.8 hPa ESE 9.8 km/h 9.8 km/h 46 % 0 mm
16:02 -5.1 °C -11.9 °C 34428.8 hPa SSE 20.9 km/h 20.9 km/h 46 % 0 mm
16:07 -5.1 °C -11.9 °C 34428.8 hPa East 20.9 km/h 20.9 km/h 46 % 0 mm
16:12 -5.1 °C -11.9 °C 34428.8 hPa WSW 9 km/h 9 km/h 46 % 0 mm
16:17 -5.1 °C -11.9 °C 34462.7 hPa WSW 11.9 km/h 11.9 km/h 46 % 0 mm
16:22 -5.1 °C -11.9 °C 34462.7 hPa SSW 11.9 km/h 11.9 km/h 46 % 0 mm
16:28 -5.1 °C -11.9 °C 34462.7 hPa SSE 6 km/h 6.3 km/h 46 % 0 mm
16:33 -5.1 °C -11.9 °C 34462.7 hPa SSW 9 km/h 9 km/h 46 % 0 mm
16:43 -4.9 °C -11.9 °C 34462.7 hPa South 3.1 km/h 3.1 km/h 45 % 0 mm
16:48 -4.9 °C -11.9 °C 34462.7 hPa WNW 9 km/h 9 km/h 45 % 0 mm
16:53 -4.9 °C -11.9 °C 34462.7 hPa WSW 9 km/h 9 km/h 45 % 0 mm
16:58 -4.9 °C -11.9 °C 34462.7 hPa South 6 km/h 6 km/h 45 % 0 mm
17:03 -4.9 °C -11.9 °C 34462.7 hPa WNW 6 km/h   45 % 0 mm
17:08 -4.9 °C -11.9 °C 34462.7 hPa SW 11.9 km/h 11.9 km/h 45 % 0 mm
17:13 -4.9 °C -11.9 °C 34462.7 hPa West 9.3 km/h 9.3 km/h 45 % 0 mm
17:18 -4.9 °C -11.9 °C 34462.7 hPa SW 11.9 km/h 11.9 km/h 45 % 0 mm
17:23 -4.9 °C -11.9 °C 34462.7 hPa SSW 11.9 km/h 11.9 km/h 45 % 0 mm
17:28 -4.9 °C -11.9 °C 34462.7 hPa WSW 15 km/h 15 km/h 45 % 0 mm
17:33 -5.7 °C -12.4 °C 34462.7 hPa WSW 9 km/h 9 km/h 46 % 0 mm
17:38 -5.7 °C -12.4 °C 34462.7 hPa SW 9 km/h 9 km/h 46 % 0 mm
17:43 -5.8 °C -12.3 °C 34462.7 hPa NNE 3.1 km/h 3.7 km/h 47 % 0 mm
17:48 -5.8 °C -12.3 °C 34496.6 hPa ENE 11.9 km/h 11.9 km/h 47 % 0 mm
17:53 -6.1 °C -12.6 °C 34496.6 hPa NNE 29.8 km/h 29.8 km/h 47 % 0 mm
17:58 -6.9 °C -12.6 °C 34496.6 hPa ENE 26.9 km/h 26.9 km/h 52 % 0 mm
18:03 -7.4 °C -12.1 °C 34496.6 hPa NNW 23.8 km/h 23.8 km/h 58 % 0 mm
18:08 -7.7 °C -11.9 °C 34496.6 hPa East 22.5 km/h 22.5 km/h 61 % 0 mm
18:13 -7.7 °C -11.8 °C 34496.6 hPa NNE 23.8 km/h 23.8 km/h 62 % 0 mm
18:18 -7.8 °C -11.8 °C 34496.6 hPa NNE 20.9 km/h 20.9 km/h 63 % 0 mm
18:23 -7.6 °C -11.4 °C 34496.6 hPa East 15.6 km/h 15.6 km/h 64 % 0 mm
18:28 -7.8 °C -11.8 °C 34496.6 hPa NNE 17.9 km/h 17.9 km/h 63 % 0 mm
18:33 -7.8 °C -11.8 °C 34533.8 hPa East 20.9 km/h 20.9 km/h 63 % 0 mm
18:38 -7.9 °C -11.8 °C 34533.8 hPa SSE 20.9 km/h 20.9 km/h 63 % 0 mm
18:43 -7.9 °C -11.8 °C 34533.8 hPa ENE 29.8 km/h 29.8 km/h 63 % 0 mm
18:48 -7.9 °C -11.8 °C 34533.8 hPa ENE 35.7 km/h 35.7 km/h 64 % 0 mm
18:58 -7.9 °C -11.8 °C 34533.8 hPa ESE 19.2 km/h 19.2 km/h 64 % 0 mm
19:03 -7.8 °C -11.8 °C 34496.6 hPa ESE 15 km/h 15 km/h 63 % 0 mm
19:08 -7.8 °C -11.8 °C 34496.6 hPa ESE 29.8 km/h 29.8 km/h 63 % 0 mm
19:13 -7.9 °C -11.8 °C 34496.6 hPa ENE 26.9 km/h 26.9 km/h 64 % 0 mm
19:18 -7.9 °C -11.8 °C 34496.6 hPa East 20.9 km/h 20.9 km/h 64 % 0 mm
19:23 -7.9 °C -11.8 °C 34496.6 hPa ENE 20.9 km/h 20.9 km/h 64 % 0 mm
19:28 -7.9 °C -11.8 °C 34496.6 hPa ENE 15 km/h 15 km/h 64 % 0 mm
19:33 -7.9 °C -11.8 °C 34533.8 hPa ENE 20.9 km/h 20.9 km/h 64 % 0 mm
19:38 -7.9 °C -11.8 °C 34533.8 hPa ENE 20.9 km/h 20.9 km/h 64 % 0 mm
19:43 -7.9 °C -11.8 °C 34533.8 hPa ENE 15 km/h 15 km/h 64 % 0 mm
19:48 -7.9 °C -11.8 °C 34533.8 hPa ENE 11.1 km/h 11.1 km/h 64 % 0 mm
19:53 -7.9 °C -11.8 °C 34533.8 hPa East 18.3 km/h 18.3 km/h 64 % 0 mm
19:58 -7.9 °C -11.8 °C 34533.8 hPa ENE 9 km/h 9 km/h 64 % 0 mm
20:03 -7.8 °C -11.6 °C 34533.8 hPa NNE 9 km/h 9 km/h 64 % 0 mm
20:08 -7.8 °C -11.6 °C 34533.8 hPa ENE 11.9 km/h 11.9 km/h 65 % 0 mm
20:13 -7.8 °C -11.7 °C 34533.8 hPa East 15.3 km/h 15.3 km/h 64 % 0 mm
20:24 -7.9 °C -11.7 °C 34533.8 hPa East 9 km/h 9 km/h 64 % 0 mm
20:25 -9.1 °C -11.8 °C 34533.8 hPa NNE 2.6 km/h 5.1 km/h 72 % 0 mm
20:29 -7.9 °C -11.7 °C 34533.8 hPa NNE 11.9 km/h 11.9 km/h 64 % 0 mm
20:34 -7.9 °C -11.7 °C 34533.8 hPa ESE 15 km/h 15 km/h 64 % 0 mm
20:39 -7.9 °C -11.7 °C 34533.8 hPa ENE 15 km/h 15 km/h 64 % 0 mm
20:44 -7.9 °C -11.7 °C 34533.8 hPa East 15 km/h 15 km/h 64 % 0 mm
20:49 -7.9 °C -11.7 °C 34533.8 hPa SE 17.9 km/h 17.9 km/h 64 % 0 mm
20:54 -7.9 °C -11.7 °C 34533.8 hPa ENE 20.9 km/h 20.9 km/h 64 % 0 mm
20:59 -7.9 °C -11.7 °C 34533.8 hPa SE 19.2 km/h 19.2 km/h 64 % 0 mm
21:04 -7.9 °C -11.7 °C 34496.6 hPa ESE 11.9 km/h 11.9 km/h 64 % 0 mm
21:14 -7.9 °C -11.7 °C 34496.6 hPa ENE 9 km/h 9 km/h 64 % 0 mm
21:19 -8.3 °C -11.8 °C 34533.8 hPa ESE 11.9 km/h 11.9 km/h 66 % 0 mm
21:24 -8.3 °C -11.8 °C 34533.8 hPa ENE 9 km/h   66 % 0 mm
21:29 -8.3 °C -11.8 °C 34533.8 hPa ENE 9 km/h 9 km/h 66 % 0 mm
21:39 -8.3 °C -11.8 °C 34533.8 hPa East 9 km/h 9 km/h 66 % 0 mm
21:49 -8.3 °C -11.8 °C 34533.8 hPa NE 9 km/h 9 km/h 66 % 0 mm
21:54 -8.3 °C -11.8 °C 34533.8 hPa ESE 7.6 km/h 7.6 km/h 66 % 0 mm
21:59 -8.4 °C -11.6 °C 34533.8 hPa ENE 6.3 km/h 6.3 km/h 69 % 0 mm
22:04 -8.4 °C -11.6 °C 34533.8 hPa ENE 6 km/h 6 km/h 69 % 0 mm
22:09 -8.4 °C -11.6 °C 34533.8 hPa East 9.8 km/h 9.8 km/h 69 % 0 mm
22:14 -8.4 °C -11.6 °C 34533.8 hPa NE 7.6 km/h 7.6 km/h 69 % 0 mm
22:19 -8.4 °C -11.5 °C 34533.8 hPa ENE 6.3 km/h 6.3 km/h 70 % 0 mm
22:24 -8.4 °C -11.5 °C 34533.8 hPa ENE 9.8 km/h 9.8 km/h 70 % 0 mm
22:29 -8.4 °C -11.5 °C 34533.8 hPa NE 10.3 km/h 10.3 km/h 70 % 0 mm
22:39 -8.4 °C -11.5 °C 34567.7 hPa ENE 6.3 km/h 6.3 km/h 70 % 0 mm
22:44 -8.4 °C -11.5 °C 34567.7 hPa East 10.3 km/h 10.3 km/h 70 % 0 mm
22:54 -8.4 °C -11.5 °C 34567.7 hPa NE 11.9 km/h 11.9 km/h 70 % 0 mm
22:59 -8.4 °C -11.5 °C 34567.7 hPa ESE 11.9 km/h 11.9 km/h 70 % 0 mm
23:04 -8.4 °C -11.5 °C 34567.7 hPa East 6 km/h 6.8 km/h 70 % 0 mm
23:09 -8.4 °C -11.6 °C 34567.7 hPa East 9 km/h 9 km/h 69 % 0 mm
23:14 -8.4 °C -11.6 °C 34567.7 hPa NE 9 km/h 9 km/h 69 % 0 mm
23:19 -8.4 °C -11.6 °C 34601.5 hPa ENE 9 km/h 9 km/h 69 % 0 mm
23:29 -8.5 °C -11.6 °C 34601.5 hPa ENE 9.3 km/h 9.3 km/h 70 % 0 mm
23:34 -8.5 °C -11.6 °C 34601.5 hPa ESE 10.3 km/h 10.3 km/h 70 % 0 mm
23:45 -8.5 °C -11.6 °C 34601.5 hPa ENE 2.6 km/h 7.7 km/h 70 % 0 mm
23:50 -8.5 °C -11.6 °C 34567.7 hPa ENE 6 km/h 6 km/h 70 % 0 mm
23:55 -8.6 °C -11.6 °C 34567.7 hPa ENE 6 km/h 6 km/h 70 % 0 mm
Meteo Sesrovires
Elogis d' Weather Underground - 1.5 mb

Guio original per  Jim McMurry - jmcmurry@mwt.net Adaptat per a la plantilla per  Wim van der Kuil - Leuven-Template.eu

Trobareu la nostra informacio del temps tambe a:

Weather Underground

AWEKAS